createdAt,value
2022-10-12T00:00:39.845Z,102387.00
2022-10-12T00:03:07.784Z,102390.09
2022-10-12T00:05:37.130Z,102395.84
2022-10-12T00:08:05.022Z,102389.78
2022-10-12T00:10:33.031Z,102384.31
2022-10-12T00:13:01.147Z,102383.13
2022-10-12T00:15:29.125Z,102382.47
2022-10-12T00:17:57.054Z,102379.06
2022-10-12T00:20:25.005Z,102379.78
2022-10-12T00:22:54.261Z,102386.41
2022-10-12T00:25:22.203Z,102387.75
2022-10-12T00:27:50.155Z,102389.44
2022-10-12T00:30:18.361Z,102388.75
2022-10-12T00:32:46.267Z,102393.78
2022-10-12T00:35:14.283Z,102380.97
2022-10-12T00:37:42.165Z,102389.00
2022-10-12T00:40:12.905Z,102382.22
2022-10-12T00:42:40.922Z,102377.81
2022-10-12T00:45:11.222Z,102380.19
2022-10-12T00:47:41.308Z,102384.25
2022-10-12T00:50:13.029Z,102386.56
2022-10-12T00:52:43.770Z,102378.72
2022-10-12T00:55:16.896Z,102387.19
2022-10-12T00:57:47.242Z,102386.09
2022-10-12T01:00:16.215Z,102384.19
2022-10-12T01:02:44.982Z,102393.84
2022-10-12T01:05:13.414Z,102384.09
2022-10-12T01:07:41.384Z,102388.13
2022-10-12T01:10:10.100Z,102387.47
2022-10-12T01:12:40.249Z,102383.41
2022-10-12T01:15:08.977Z,102386.41
2022-10-12T01:17:42.540Z,102391.25
2022-10-12T01:20:36.030Z,102386.88
2022-10-12T01:23:25.554Z,102386.38
2022-10-12T01:26:11.311Z,102385.66
2022-10-12T01:28:47.865Z,102376.13
2022-10-12T01:31:22.975Z,102381.84
2022-10-12T01:33:56.310Z,102368.34
2022-10-12T01:36:28.761Z,102375.75
2022-10-12T01:39:01.222Z,102372.19
2022-10-12T01:41:32.837Z,102367.16
2022-10-12T01:44:00.732Z,102367.63
2022-10-12T01:46:43.794Z,102360.84
2022-10-12T01:49:11.980Z,102358.44
2022-10-12T01:51:52.574Z,102355.22
2022-10-12T01:54:29.274Z,102354.88
2022-10-12T01:56:59.618Z,102354.44
2022-10-12T01:59:35.183Z,102355.22
2022-10-12T02:02:09.890Z,102353.72
2022-10-12T02:04:40.890Z,102341.59
2022-10-12T02:07:15.278Z,102341.69
2022-10-12T02:09:43.376Z,102344.81
2022-10-12T02:12:15.327Z,102339.13
2022-10-12T02:14:46.478Z,102343.97
2022-10-12T02:17:18.429Z,102338.28
2022-10-12T02:19:49.269Z,102340.66
2022-10-12T02:22:17.778Z,102341.66
2022-10-12T02:24:47.493Z,102339.00
2022-10-12T02:27:17.042Z,102337.53
2022-10-12T02:29:46.965Z,102329.34
2022-10-12T02:32:20.622Z,102330.19
2022-10-12T02:34:53.376Z,102324.28
2022-10-12T02:37:30.264Z,102322.53
2022-10-12T02:40:04.283Z,102323.06
2022-10-12T02:42:46.639Z,102322.09
2022-10-12T02:45:24.281Z,102318.75
2022-10-12T02:47:55.167Z,102307.78
2022-10-12T02:50:24.082Z,102317.47
2022-10-12T02:52:53.048Z,102302.72
2022-10-12T02:55:20.969Z,102302.91
2022-10-12T02:57:48.902Z,102303.78
2022-10-12T03:00:18.102Z,102299.22
2022-10-12T03:02:45.965Z,102293.19
2022-10-12T03:05:15.421Z,102296.59
2022-10-12T03:07:43.532Z,102287.97
2022-10-12T03:10:11.833Z,102297.06
2022-10-12T03:12:39.745Z,102294.44
2022-10-12T03:15:08.286Z,102289.91
2022-10-12T03:17:36.401Z,102288.63
2022-10-12T03:20:04.849Z,102287.56
2022-10-12T03:22:34.159Z,102292.97
2022-10-12T03:25:08.898Z,102290.78
2022-10-12T03:27:37.105Z,102291.13
2022-10-12T03:30:05.566Z,102291.50
2022-10-12T03:32:33.606Z,102286.53
2022-10-12T03:35:01.512Z,102287.53
2022-10-12T03:37:29.441Z,102284.00
2022-10-12T03:39:58.742Z,102284.50
2022-10-12T03:42:26.621Z,102283.38
2022-10-12T03:44:54.496Z,102286.31
2022-10-12T03:47:22.413Z,102286.16
2022-10-12T03:49:50.435Z,102283.84
2022-10-12T03:52:18.398Z,102290.19
2022-10-12T03:54:46.454Z,102283.69
2022-10-12T03:57:15.810Z,102293.78
2022-10-12T03:59:43.756Z,102288.03
2022-10-12T04:02:16.542Z,102286.56
2022-10-12T04:04:45.142Z,102293.72
2022-10-12T04:07:13.257Z,102297.69
2022-10-12T04:09:41.160Z,102295.13
2022-10-12T04:12:09.098Z,102294.72
2022-10-12T04:14:38.393Z,102304.16
2022-10-12T04:17:06.291Z,102294.59
2022-10-12T04:19:34.228Z,102293.97
2022-10-12T04:22:02.167Z,102289.53
2022-10-12T04:24:30.059Z,102300.00
2022-10-12T04:26:57.946Z,102298.53
2022-10-12T04:29:26.053Z,102304.94
2022-10-12T04:31:55.490Z,102294.88
2022-10-12T04:34:23.521Z,102294.16
2022-10-12T04:36:51.855Z,102287.34
2022-10-12T04:39:19.725Z,102290.91
2022-10-12T04:41:47.626Z,102307.88
2022-10-12T04:44:15.540Z,102305.44
2022-10-12T04:46:43.452Z,102299.78
2022-10-12T04:49:12.777Z,102301.03
2022-10-12T04:51:40.702Z,102305.97
2022-10-12T04:54:08.713Z,102305.78
2022-10-12T04:56:36.638Z,102304.78
2022-10-12T04:59:04.577Z,102296.31
2022-10-12T05:01:32.661Z,102292.78
2022-10-12T05:04:01.425Z,102294.78
2022-10-12T05:06:30.889Z,102292.00
2022-10-12T05:08:58.956Z,102294.69
2022-10-12T05:11:27.029Z,102285.19
2022-10-12T05:13:54.937Z,102294.84
2022-10-12T05:16:23.181Z,102292.25
2022-10-12T05:18:51.066Z,102288.03
2022-10-12T05:21:18.969Z,102291.13
2022-10-12T05:23:51.393Z,102291.75
2022-10-12T05:26:19.354Z,102291.19
2022-10-12T05:28:47.300Z,102289.16
2022-10-12T05:31:15.466Z,102295.09
2022-10-12T05:33:43.365Z,102297.25
2022-10-12T05:36:11.337Z,102294.72
2022-10-12T05:38:39.331Z,102290.81
2022-10-12T05:41:09.458Z,102291.78
2022-10-12T05:43:37.374Z,102293.75
2022-10-12T05:46:05.340Z,102297.91
2022-10-12T05:48:33.440Z,102296.97
2022-10-12T05:51:01.481Z,102293.56
2022-10-12T05:53:29.389Z,102295.50
2022-10-12T05:55:58.687Z,102301.63
2022-10-12T05:58:28.799Z,102309.09
2022-10-12T06:00:57.019Z,102302.13
2022-10-12T06:03:26.429Z,102302.13
2022-10-12T06:05:54.664Z,102304.31
2022-10-12T06:08:22.533Z,102299.66
2022-10-12T06:10:52.060Z,102287.63
2022-10-12T06:13:20.148Z,102297.00
2022-10-12T06:15:50.111Z,102295.41
2022-10-12T06:18:18.524Z,102292.34
2022-10-12T06:20:49.533Z,102293.94
2022-10-12T06:23:18.311Z,102298.72
2022-10-12T06:25:47.702Z,102296.88
2022-10-12T06:28:15.772Z,102304.44
2022-10-12T06:30:43.913Z,102306.44
2022-10-12T06:33:13.358Z,102303.00
2022-10-12T06:35:41.335Z,102298.94
2022-10-12T06:38:09.431Z,102296.09
2022-10-12T06:40:37.300Z,102296.31
2022-10-12T06:43:05.290Z,102298.94
2022-10-12T06:45:33.322Z,102300.94
2022-10-12T06:48:01.582Z,102294.66
2022-10-12T06:50:31.127Z,102288.25
2022-10-12T06:52:59.014Z,102296.09
2022-10-12T06:55:26.936Z,102300.47
2022-10-12T06:57:56.237Z,102298.50
2022-10-12T07:00:25.473Z,102301.81
2022-10-12T07:02:53.713Z,102296.34
2022-10-12T07:05:22.387Z,102304.91
2022-10-12T07:07:51.761Z,102301.44
2022-10-12T07:10:19.699Z,102303.84
2022-10-12T07:12:47.898Z,102305.34
2022-10-12T07:15:15.930Z,102306.84
2022-10-12T07:17:43.882Z,102307.25
2022-10-12T07:20:11.893Z,102315.88
2022-10-12T07:22:39.814Z,102307.63
2022-10-12T07:25:10.299Z,102313.66
2022-10-12T07:27:38.408Z,102307.19
2022-10-12T07:30:07.444Z,102319.47
2022-10-12T07:32:35.393Z,102320.00
2022-10-12T07:35:03.284Z,102314.31
2022-10-12T07:37:31.190Z,102317.56
2022-10-12T07:39:59.090Z,102320.00
2022-10-12T07:42:28.493Z,102312.84
2022-10-12T07:44:56.407Z,102318.53
2022-10-12T07:47:24.730Z,102316.44
2022-10-12T07:49:52.621Z,102314.22
2022-10-12T07:52:20.540Z,102322.59
2022-10-12T07:54:48.805Z,102316.66
2022-10-12T07:57:16.805Z,102313.28
2022-10-12T07:59:46.080Z,102311.81
2022-10-12T08:02:14.342Z,102318.38
2022-10-12T08:04:42.348Z,102318.44
2022-10-12T08:07:10.309Z,102322.94
2022-10-12T08:09:38.210Z,102326.34
2022-10-12T08:12:07.147Z,102317.16
2022-10-12T08:14:35.054Z,102317.31
2022-10-12T08:17:05.394Z,102324.38
2022-10-12T08:19:35.451Z,102320.44
2022-10-12T08:22:03.446Z,102333.31
2022-10-12T08:24:31.362Z,102325.13
2022-10-12T08:27:01.616Z,102325.78
2022-10-12T08:29:29.762Z,102333.44
2022-10-12T08:31:57.691Z,102334.44
2022-10-12T08:34:27.101Z,102331.63
2022-10-12T08:36:54.998Z,102334.66
2022-10-12T08:39:22.958Z,102331.78
2022-10-12T08:41:58.408Z,102328.84
2022-10-12T08:44:43.787Z,102329.91
2022-10-12T08:47:14.711Z,102327.78
2022-10-12T08:49:49.432Z,102332.41
2022-10-12T08:52:27.093Z,102324.00
2022-10-12T08:54:56.181Z,102320.50
2022-10-12T08:57:24.071Z,102324.00
2022-10-12T08:59:52.011Z,102323.28
2022-10-12T09:02:32.493Z,102321.56
2022-10-12T09:05:04.118Z,102327.34
2022-10-12T09:07:36.041Z,102328.53
2022-10-12T09:10:12.121Z,102325.81
2022-10-12T09:12:47.303Z,102320.31
2022-10-12T09:15:18.128Z,102319.84
2022-10-12T09:17:48.318Z,102316.66
2022-10-12T09:20:20.723Z,102328.72
2022-10-12T09:22:51.134Z,102327.63
2022-10-12T09:25:20.277Z,102323.00
2022-10-12T09:27:48.482Z,102324.00
2022-10-12T09:30:17.845Z,102321.78
2022-10-12T09:33:03.676Z,102320.47
2022-10-12T09:35:33.771Z,102324.75
2022-10-12T09:38:02.417Z,102323.31
2022-10-12T09:40:32.242Z,102319.13
2022-10-12T09:43:01.767Z,102316.78
2022-10-12T09:45:32.335Z,102315.97
2022-10-12T09:48:15.456Z,102311.84
2022-10-12T09:50:47.261Z,102318.81
2022-10-12T09:53:20.707Z,102317.88
2022-10-12T09:55:55.045Z,102305.44
2022-10-12T09:58:23.098Z,102302.31
2022-10-12T10:01:19.462Z,102302.16
2022-10-12T10:03:48.654Z,102310.38
2022-10-12T10:06:24.197Z,102312.06
2022-10-12T10:08:52.110Z,102303.56
2022-10-12T10:11:23.605Z,102295.00
2022-10-12T10:13:53.909Z,102296.06
2022-10-12T10:16:24.699Z,102290.03
2022-10-12T10:18:57.670Z,102290.44
2022-10-12T10:21:30.000Z,102286.59
2022-10-12T10:23:59.540Z,102284.25
2022-10-12T10:26:29.338Z,102285.63
2022-10-12T10:28:59.894Z,102284.75
2022-10-12T10:31:29.699Z,102287.75
2022-10-12T10:34:26.347Z,102277.44
2022-10-12T10:36:57.140Z,102284.16
2022-10-12T10:39:27.445Z,102272.84
2022-10-12T10:41:56.271Z,102267.38
2022-10-12T10:44:32.324Z,102267.25
2022-10-12T10:47:03.592Z,102266.38
2022-10-12T10:49:37.927Z,102264.59
2022-10-12T10:52:09.282Z,102259.78
2022-10-12T10:54:38.818Z,102262.56
2022-10-12T10:57:12.081Z,102256.84
2022-10-12T10:59:50.375Z,102252.25
2022-10-12T11:02:26.636Z,102250.44
2022-10-12T11:04:59.495Z,102247.31
2022-10-12T11:07:32.406Z,102243.09
2022-10-12T11:10:04.958Z,102243.44
2022-10-12T11:12:35.502Z,102244.19
2022-10-12T11:15:08.954Z,102238.97
2022-10-12T11:17:42.194Z,102234.28
2022-10-12T11:20:32.023Z,102238.19
2022-10-12T11:23:05.551Z,102229.03
2022-10-12T11:25:38.589Z,102226.28
2022-10-12T11:28:07.978Z,102221.88
2022-10-12T11:30:40.185Z,102227.75
2022-10-12T11:33:12.441Z,102230.38
2022-10-12T11:35:43.832Z,102226.09
2022-10-12T11:38:18.413Z,102212.03
2022-10-12T11:43:41.595Z,102197.84
2022-10-12T11:46:13.690Z,102201.66
2022-10-12T11:48:45.973Z,102194.41
2022-10-12T11:51:14.125Z,102198.00
2022-10-12T11:53:50.153Z,102189.22
2022-10-12T11:56:22.318Z,102180.44
2022-10-12T11:59:01.041Z,102182.19
2022-10-12T12:01:48.918Z,102185.41
2022-10-12T12:07:41.745Z,102182.03
2022-10-12T12:10:43.030Z,102180.41
2022-10-12T12:13:22.941Z,102172.09
2022-10-12T12:16:31.700Z,102157.53
2022-10-12T12:19:36.987Z,102161.69
2022-10-12T12:22:28.793Z,102172.44
2022-10-12T12:25:17.662Z,102149.59
2022-10-12T12:27:48.682Z,102158.66
2022-10-12T12:30:36.597Z,102156.88
2022-10-12T12:33:07.547Z,102149.34
2022-10-12T12:35:38.682Z,102144.69
2022-10-12T12:38:19.442Z,102144.47
2022-10-12T12:41:02.130Z,102152.34
2022-10-12T12:43:52.226Z,102138.94
2022-10-12T12:46:22.193Z,102147.03
2022-10-12T12:49:03.947Z,102146.66
2022-10-12T12:51:39.268Z,102139.59
2022-10-12T12:54:14.421Z,102135.66
2022-10-12T12:57:04.098Z,102138.13
2022-10-12T12:59:55.069Z,102139.59
2022-10-12T13:02:40.573Z,102127.19
2022-10-12T13:05:30.946Z,102128.31
2022-10-12T13:08:07.294Z,102131.06
2022-10-12T13:10:42.278Z,102121.03
2022-10-12T13:13:22.825Z,102122.75
2022-10-12T13:16:03.064Z,102118.13
2022-10-12T13:18:52.373Z,102125.78
2022-10-12T13:21:23.546Z,102123.34
2022-10-12T13:23:54.636Z,102128.81
2022-10-12T13:26:25.586Z,102112.78
2022-10-12T13:28:53.926Z,102116.66
2022-10-12T13:31:26.490Z,102124.16
2022-10-12T13:34:01.246Z,102107.59
2022-10-12T13:36:31.204Z,102113.97
2022-10-12T13:39:00.482Z,102104.41
2022-10-12T13:41:30.440Z,102107.16
2022-10-12T13:43:59.453Z,102114.69
2022-10-12T13:46:39.347Z,102109.91
2022-10-12T13:49:14.729Z,102092.28
2022-10-12T13:51:43.967Z,102093.66
2022-10-12T13:54:23.442Z,102080.88
2022-10-12T13:56:54.049Z,102082.84
2022-10-12T13:59:24.488Z,102082.59
2022-10-12T14:01:55.558Z,102078.78
2022-10-12T14:04:29.913Z,102084.69
2022-10-12T14:07:00.994Z,102084.06
2022-10-12T14:09:30.002Z,102079.09
2022-10-12T14:11:58.270Z,102082.25
2022-10-12T14:14:32.017Z,102073.59
2022-10-12T14:17:00.124Z,102064.38
2022-10-12T14:19:45.888Z,102062.44
2022-10-12T14:22:14.114Z,102057.69
2022-10-12T14:24:42.011Z,102061.25
2022-10-12T14:27:20.343Z,102054.56
2022-10-12T14:29:49.011Z,102048.59
2022-10-12T14:32:42.489Z,102050.50
2022-10-12T14:35:22.117Z,102038.84
2022-10-12T14:37:50.694Z,102039.38
2022-10-12T14:40:29.429Z,102035.22
2022-10-12T14:43:03.529Z,102026.44
2022-10-12T14:45:32.671Z,102029.75
2022-10-12T14:48:01.407Z,102026.06
2022-10-12T14:50:32.096Z,102026.47
2022-10-12T14:53:02.507Z,102014.25
2022-10-12T14:55:32.026Z,102017.81
2022-10-12T14:58:00.111Z,102021.59
2022-10-12T15:00:30.105Z,102017.44
2022-10-12T15:02:58.413Z,102016.00
2022-10-12T15:05:28.950Z,102019.53
2022-10-12T15:07:58.414Z,102008.03
2022-10-12T15:10:27.387Z,102016.56
2022-10-12T15:12:55.543Z,102008.91
2022-10-12T15:15:32.003Z,102007.28
2022-10-12T15:18:00.129Z,101999.97
2022-10-12T15:20:28.286Z,101992.25
2022-10-12T15:22:56.225Z,101998.41
2022-10-12T15:25:27.814Z,101992.72
2022-10-12T15:27:55.962Z,101988.56
2022-10-12T15:30:23.890Z,101981.53
2022-10-12T15:32:51.773Z,101986.63
2022-10-12T15:35:22.067Z,101977.13
2022-10-12T15:37:50.545Z,101970.75
2022-10-12T15:40:19.364Z,101974.63
2022-10-12T15:42:48.798Z,101979.25
2022-10-12T15:45:22.748Z,101974.81
2022-10-12T15:47:51.439Z,101962.22
2022-10-12T15:50:21.208Z,101961.44
2022-10-12T15:52:49.459Z,101959.44
2022-10-12T15:55:19.277Z,101957.44
2022-10-12T15:57:49.013Z,101968.38
2022-10-12T16:00:18.110Z,101960.75
2022-10-12T16:02:46.037Z,101965.13
2022-10-12T16:05:22.548Z,101957.50
2022-10-12T16:07:50.608Z,101954.50
2022-10-12T16:10:19.874Z,101965.22
2022-10-12T16:12:50.870Z,101969.72
2022-10-12T16:15:21.429Z,101962.09
2022-10-12T16:17:49.333Z,101962.84
2022-10-12T16:20:17.757Z,101953.59
2022-10-12T16:22:45.959Z,101957.97
2022-10-12T16:25:15.185Z,101956.72
2022-10-12T16:27:43.155Z,101945.06
2022-10-12T16:30:13.689Z,101952.06
2022-10-12T16:32:41.865Z,101955.91
2022-10-12T16:35:10.709Z,101948.66
2022-10-12T16:37:38.790Z,101943.59
2022-10-12T16:40:08.340Z,101951.66
2022-10-12T16:42:36.506Z,101953.00
2022-10-12T16:45:05.260Z,101936.81
2022-10-12T16:47:37.620Z,101940.03
2022-10-12T16:50:08.608Z,101952.53
2022-10-12T16:52:36.500Z,101950.94
2022-10-12T16:55:04.878Z,101964.22
2022-10-12T16:57:32.814Z,101963.22
2022-10-12T17:00:00.705Z,101958.03
2022-10-12T17:02:28.775Z,101959.84
2022-10-12T17:04:58.457Z,101957.13
2022-10-12T17:07:26.973Z,101966.56
2022-10-12T17:09:55.877Z,101962.78
2022-10-12T17:12:23.821Z,101961.63
2022-10-12T17:14:52.175Z,101961.31
2022-10-12T17:17:20.301Z,101967.13
2022-10-12T17:19:48.362Z,101969.78
2022-10-12T17:22:17.980Z,101973.94
2022-10-12T17:24:46.081Z,101964.28
2022-10-12T17:27:15.764Z,101971.44
2022-10-12T17:29:43.904Z,101966.69
2022-10-12T17:32:12.453Z,101964.84
2022-10-12T17:34:42.427Z,101966.22
2022-10-12T17:37:12.200Z,101961.66
2022-10-12T17:39:43.369Z,101957.91
2022-10-12T17:42:11.563Z,101953.94
2022-10-12T17:44:39.765Z,101956.88
2022-10-12T17:47:07.892Z,101960.88
2022-10-12T17:49:35.818Z,101954.47
2022-10-12T17:52:03.729Z,101952.19
2022-10-12T17:54:32.649Z,101955.03
2022-10-12T17:57:01.987Z,101950.47
2022-10-12T17:59:29.969Z,101952.22
2022-10-12T18:01:57.873Z,101943.97
2022-10-12T18:04:26.466Z,101950.81
2022-10-12T18:06:54.572Z,101952.09
2022-10-12T18:09:22.477Z,101946.72
2022-10-12T18:11:50.353Z,101949.09
2022-10-12T18:14:19.938Z,101945.38
2022-10-12T18:16:47.822Z,101950.09
2022-10-12T18:19:15.903Z,101940.34
2022-10-12T18:21:44.153Z,101938.25
2022-10-12T18:24:17.459Z,101946.50
2022-10-12T18:26:46.497Z,101951.78
2022-10-12T18:29:14.383Z,101942.88
2022-10-12T18:31:43.777Z,101943.88
2022-10-12T18:34:11.854Z,101934.69
2022-10-12T18:36:41.343Z,101941.13
2022-10-12T18:39:09.549Z,101942.81
2022-10-12T18:41:37.573Z,101934.00
2022-10-12T18:44:05.554Z,101935.09
2022-10-12T18:46:35.360Z,101930.00
2022-10-12T18:49:06.938Z,101926.63
2022-10-12T18:51:37.118Z,101934.41
2022-10-12T18:54:06.015Z,101927.09
2022-10-12T18:56:35.604Z,101922.69
2022-10-12T18:59:04.452Z,101922.41
2022-10-12T19:01:33.178Z,101928.25
2022-10-12T19:04:02.057Z,101927.16
2022-10-12T19:06:33.314Z,101921.88
2022-10-12T19:09:02.440Z,101918.25
2022-10-12T19:11:31.177Z,101924.09
2022-10-12T19:14:00.861Z,101925.28
2022-10-12T19:16:29.416Z,101920.69
2022-10-12T19:18:58.168Z,101914.53
2022-10-12T19:21:26.476Z,101923.47
2022-10-12T19:23:55.930Z,101920.28
2022-10-12T19:26:25.966Z,101917.94
2022-10-12T19:28:56.085Z,101912.81
2022-10-12T19:31:26.527Z,101911.47
2022-10-12T19:33:56.726Z,101905.66
2022-10-12T19:36:25.046Z,101904.22
2022-10-12T19:38:52.918Z,101903.34
2022-10-12T19:41:22.199Z,101894.09
2022-10-12T19:43:50.113Z,101890.38
2022-10-12T19:46:18.049Z,101888.69
2022-10-12T19:48:50.088Z,101888.50
2022-10-12T19:51:18.509Z,101884.16
2022-10-12T19:53:46.456Z,101882.03
2022-10-12T19:56:16.146Z,101880.56
2022-10-12T19:58:46.577Z,101873.06
2022-10-12T20:01:16.527Z,101875.72
2022-10-12T20:03:47.887Z,101874.53
2022-10-12T20:06:16.251Z,101872.78
2022-10-12T20:08:45.357Z,101872.22
2022-10-12T20:11:17.972Z,101878.19
2022-10-12T20:13:47.848Z,101869.50
2022-10-12T20:16:16.177Z,101863.88
2022-10-12T20:18:44.112Z,101867.44
2022-10-12T20:21:20.846Z,101870.38
2022-10-12T20:23:49.018Z,101871.44
2022-10-12T20:26:18.889Z,101863.31
2022-10-12T20:28:48.743Z,101855.63
2022-10-12T20:31:18.571Z,101862.34
2022-10-12T20:33:46.536Z,101850.50
2022-10-12T20:36:20.955Z,101839.47
2022-10-12T20:38:48.957Z,101847.22
2022-10-12T20:41:18.057Z,101836.72
2022-10-12T20:43:46.302Z,101840.88
2022-10-12T20:46:17.157Z,101844.38
2022-10-12T20:48:45.965Z,101836.81
2022-10-12T20:51:21.886Z,101835.53
2022-10-12T20:53:50.882Z,101835.44
2022-10-12T20:56:18.832Z,101836.75
2022-10-12T20:58:47.080Z,101834.72
2022-10-12T21:01:17.697Z,101843.72
2022-10-12T21:03:45.666Z,101844.00
2022-10-12T21:06:15.705Z,101852.47
2022-10-12T21:08:44.157Z,101851.09
2022-10-12T21:11:12.521Z,101850.41
2022-10-12T21:13:41.786Z,101840.63
2022-10-12T21:16:09.935Z,101844.63
2022-10-12T21:18:39.417Z,101833.53
2022-10-12T21:21:11.533Z,101835.13
2022-10-12T21:23:39.942Z,101831.56
2022-10-12T21:26:12.334Z,101827.13
2022-10-12T21:28:40.376Z,101823.91
2022-10-12T21:31:08.650Z,101820.66
2022-10-12T21:33:37.266Z,101829.81
2022-10-12T21:36:10.452Z,101833.13
2022-10-12T21:38:38.784Z,101827.94
2022-10-12T21:41:07.710Z,101818.63
2022-10-12T21:43:35.993Z,101814.00
2022-10-12T21:46:04.848Z,101810.28
2022-10-12T21:48:33.540Z,101808.47
2022-10-12T21:51:01.561Z,101812.22
2022-10-12T21:53:31.190Z,101810.28
2022-10-12T21:55:59.302Z,101818.31
2022-10-12T21:58:27.229Z,101814.38
2022-10-12T22:00:55.197Z,101818.31
2022-10-12T22:03:23.721Z,101820.03
2022-10-12T22:05:51.657Z,101814.81
2022-10-12T22:08:19.597Z,101815.69
2022-10-12T22:10:48.855Z,101817.31
2022-10-12T22:13:16.752Z,101815.69
2022-10-12T22:15:44.703Z,101810.97
2022-10-12T22:18:12.746Z,101814.75
2022-10-12T22:20:40.683Z,101814.81
2022-10-12T22:23:08.597Z,101810.19
2022-10-12T22:25:36.530Z,101806.22
2022-10-12T22:28:05.955Z,101799.81
2022-10-12T22:30:33.842Z,101808.38
2022-10-12T22:33:01.732Z,101799.53
2022-10-12T22:35:29.660Z,101799.88
2022-10-12T22:37:57.570Z,101797.25
2022-10-12T22:40:25.457Z,101799.75
2022-10-12T22:42:53.349Z,101797.94
2022-10-12T22:45:27.767Z,101795.91
2022-10-12T22:47:56.014Z,101796.66
2022-10-12T22:50:23.923Z,101795.72
2022-10-12T22:52:51.810Z,101781.31
2022-10-12T22:55:19.667Z,101774.72
2022-10-12T22:57:47.591Z,101766.38
2022-10-12T23:00:16.703Z,101766.94
2022-10-12T23:02:45.950Z,101773.22
2022-10-12T23:05:13.895Z,101766.53
2022-10-12T23:07:41.796Z,101764.38
2022-10-12T23:10:10.326Z,101761.69
2022-10-12T23:12:38.220Z,101759.06
2022-10-12T23:15:06.914Z,101764.06
2022-10-12T23:17:34.830Z,101760.59
2022-10-12T23:20:04.612Z,101760.41
2022-10-12T23:22:32.750Z,101750.09
2022-10-12T23:25:00.776Z,101745.44
2022-10-12T23:27:29.670Z,101743.69
2022-10-12T23:29:57.577Z,101751.28
2022-10-12T23:32:25.529Z,101755.72
2022-10-12T23:34:53.543Z,101757.75
2022-10-12T23:37:22.814Z,101748.00
2022-10-12T23:39:50.706Z,101750.84
2022-10-12T23:42:18.835Z,101749.28
2022-10-12T23:44:46.962Z,101749.22
2022-10-12T23:47:14.867Z,101745.44
2022-10-12T23:49:42.822Z,101743.88
2022-10-12T23:52:10.702Z,101744.63
2022-10-12T23:54:39.974Z,101744.97
2022-10-12T23:57:22.571Z,101747.13
2022-10-12T23:59:55.962Z,101744.75
